Time;durP1;ratioP1;P1;durP2;ratioP2;P2;SDS_P1;SDS_P2;PMS_P1;PMS_P2;Temp;Humidity;BMP_temperature;BMP_pressure;BME280_temperature;BME280_humidity;BME280_pressure;Samples;Min_cycle;Max_cycle;Signal;HPM_P1;HPM_P2
2023/08/21 00:01:37;;;;;;;7.23;4.20;;;22.40;98.20;;;22.54;67.01;101590.75;5055027;28;20190;-77
2023/08/21 00:04:09;;;;;;;8.00;4.40;;;22.40;98.20;;;22.47;67.54;101581.75;5055320;28;20332;-78
2023/08/21 00:06:41;;;;;;;6.53;4.20;;;22.40;98.40;;;22.49;67.15;101585.97;5055332;28;20190;-78
2023/08/21 00:09:13;;;;;;;5.30;3.97;;;22.40;98.30;;;22.53;67.36;101576.28;5055313;28;20283;-78
2023/08/21 00:11:45;;;;;;;5.83;3.80;;;22.40;98.30;;;22.49;67.13;101575.06;5054938;28;20654;-78
2023/08/21 00:14:17;;;;;;;6.77;4.20;;;22.40;98.10;;;22.47;67.14;101565.38;5054783;28;20240;-78
2023/08/21 00:16:50;;;;;;;6.03;3.90;;;22.40;98.10;;;22.46;67.57;101566.47;5054860;28;20720;-78
2023/08/21 00:19:22;;;;;;;4.50;4.10;;;22.40;98.30;;;22.41;67.29;101567.13;5055030;28;20183;-77
2023/08/21 00:21:54;;;;;;;7.13;3.90;;;22.30;98.20;;;22.39;67.94;101563.78;5055093;28;20186;-77
2023/08/21 00:24:25;;;;;;;4.57;3.80;;;22.30;98.40;;;22.31;67.58;101566.75;5054670;28;20771;-78
2023/08/21 00:26:57;;;;;;;8.47;4.70;;;22.20;98.30;;;22.31;67.49;101564.03;5055002;28;20212;-77
2023/08/21 00:29:30;;;;;;;8.77;4.57;;;22.20;98.30;;;22.15;67.82;101561.78;5054867;28;20210;-77
2023/08/21 00:32:03;;;;;;;6.50;4.23;;;22.10;98.50;;;22.07;68.46;101570.22;5054885;28;20281;-77
2023/08/21 00:34:35;;;;;;;8.93;4.30;;;21.90;98.80;;;21.98;68.10;101560.59;5054758;28;20228;-78
2023/08/21 00:37:07;;;;;;;5.80;4.53;;;21.90;98.80;;;21.84;68.87;101558.94;5054728;28;20241;-78
2023/08/21 00:39:39;;;;;;;6.27;4.37;;;21.70;99.10;;;21.78;68.79;101566.09;5054953;28;20269;-77
2023/08/21 00:42:11;;;;;;;8.23;4.50;;;21.70;99.40;;;21.77;69.04;101558.97;5054631;28;20277;-77
2023/08/21 00:44:42;;;;;;;5.60;4.30;;;21.60;99.60;;;21.80;69.26;101550.34;5054525;28;20261;-77
2023/08/21 00:47:16;;;;;;;6.60;3.90;;;21.70;99.50;;;21.72;69.12;101554.13;5054579;28;20297;-77
2023/08/21 00:49:48;;;;;;;4.87;4.03;;;21.60;99.50;;;21.67;69.02;101543.06;5054138;28;20779;-77
2023/08/21 00:52:21;;;;;;;7.97;4.47;;;21.60;99.60;;;21.65;69.17;101545.13;5054472;28;20619;-77
2023/08/21 00:54:55;;;;;;;5.93;4.40;;;21.50;99.60;;;21.65;69.35;101550.59;5054015;28;20744;-77
2023/08/21 00:57:28;;;;;;;4.83;4.33;;;21.50;99.90;;;21.53;69.99;101546.00;5054101;28;20723;-77
2023/08/21 01:00:00;;;;;;;4.93;4.23;;;21.40;99.90;;;21.51;69.22;101548.94;5054307;28;20197;-78
2023/08/21 01:02:33;;;;;;;4.90;4.40;;;21.40;99.80;;;21.38;70.60;101548.13;5054176;28;20264;-78
2023/08/21 01:05:06;;;;;;;6.00;4.10;;;21.30;99.90;;;21.26;70.67;101539.78;5054244;28;20281;-78
2023/08/21 01:07:50;;;;;;;5.93;4.23;;;21.20;99.90;;;21.36;70.24;101553.78;5053876;28;20198;-78
2023/08/21 01:10:34;;;;;;;5.93;3.90;;;21.30;99.90;;;21.24;70.52;101545.41;5054029;28;20214;-78
2023/08/21 01:13:20;;;;;;;8.13;4.37;;;21.10;99.90;;;21.25;70.96;101543.53;5053054;28;20325;-78
2023/08/21 01:15:54;;;;;;;6.03;4.33;;;21.10;99.90;;;21.26;70.71;101547.94;5054059;28;20273;-77
2023/08/21 01:18:29;;;;;;;7.63;4.30;;;21.30;99.90;;;21.15;70.86;101545.84;5053722;28;20636;-77
2023/08/21 01:21:03;;;;;;;5.43;4.10;;;21.10;99.90;;;21.16;70.63;101555.69;5053907;28;20242;-78
2023/08/21 01:23:42;;;;;;;4.97;4.23;;;21.10;99.90;;;21.18;70.41;101559.03;5054102;28;20249;-78
2023/08/21 01:26:16;;;;;;;5.47;4.40;;;21.10;99.90;;;21.10;70.37;101559.22;5053531;28;20556;-78
2023/08/21 01:28:47;;;;;;;7.00;4.40;;;21.00;99.90;;;21.03;70.97;101558.34;5053869;28;20193;-78
2023/08/21 01:31:27;;;;;;;5.53;4.17;;;20.90;99.90;;;20.96;71.07;101565.72;5053803;28;20285;-78
2023/08/21 01:34:09;;;;;;;7.70;4.40;;;20.90;99.90;;;20.92;71.27;101559.84;5053720;28;20253;-78
2023/08/21 01:36:43;;;;;;;5.40;4.43;;;20.90;99.90;;;20.82;72.35;101559.41;5053712;28;20281;-78
2023/08/21 01:39:17;;;;;;;7.97;4.10;;;20.80;99.90;;;20.79;72.12;101553.56;5053988;28;20273;-78
2023/08/21 01:41:49;;;;;;;7.77;4.40;;;20.70;99.90;;;20.75;72.22;101550.41;5053638;28;20190;-78
2023/08/21 01:44:21;;;;;;;4.77;4.27;;;20.70;99.90;;;20.70;72.03;101551.00;5053210;28;20733;-78
2023/08/21 01:46:52;;;;;;;8.53;4.00;;;20.70;99.90;;;20.73;72.28;101556.03;5053568;28;20269;-78
2023/08/21 01:49:24;;;;;;;6.90;4.07;;;20.70;99.90;;;20.79;71.87;101554.38;5053503;28;20224;-78
2023/08/21 01:51:56;;;;;;;4.77;4.10;;;20.80;99.90;;;20.72;72.28;101562.53;5053220;28;20608;-78
2023/08/21 01:54:29;;;;;;;5.70;4.33;;;20.70;99.90;;;20.69;71.75;101559.38;5053051;28;20610;-78
2023/08/21 01:57:01;;;;;;;8.73;4.27;;;20.60;99.90;;;20.67;72.09;101562.31;5052898;28;20380;-78
2023/08/21 01:59:33;;;;;;;7.07;4.30;;;20.60;99.90;;;20.68;72.11;101558.56;5053686;28;20191;-78
2023/08/21 02:02:05;;;;;;;6.40;4.20;;;20.60;99.90;;;20.67;71.79;101567.75;5053401;28;20186;-78
2023/08/21 02:04:37;;;;;;;6.10;4.70;;;20.70;99.90;;;20.53;72.83;101559.78;5053282;28;20222;-78
2023/08/21 02:07:09;;;;;;;6.47;4.53;;;20.50;99.90;;;20.45;73.46;101558.06;5053022;28;20548;-78
2023/08/21 02:09:42;;;;;;;6.77;4.20;;;20.40;99.90;;;20.43;72.87;101560.16;5052963;28;20779;-78
2023/08/21 02:12:14;;;;;;;6.27;4.60;;;20.40;99.90;;;20.39;72.90;101564.34;5053292;28;20285;-78
2023/08/21 02:14:46;;;;;;;5.00;4.27;;;20.30;99.90;;;20.43;73.23;101571.03;5052850;28;20677;-78
2023/08/21 02:17:18;;;;;;;4.70;4.13;;;20.40;99.90;;;20.44;72.71;101567.28;5053259;28;20197;-78
2023/08/21 02:19:50;;;;;;;4.93;4.07;;;20.40;99.90;;;20.44;72.27;101572.72;5053271;28;20278;-78
2023/08/21 02:22:21;;;;;;;5.50;4.50;;;20.50;99.90;;;20.26;72.79;101566.97;5053202;28;20277;-78
2023/08/21 02:24:54;;;;;;;4.73;4.27;;;20.30;99.90;;;20.20;73.77;101565.94;5056229;28;20323;-78
2023/08/21 02:27:26;;;;;;;7.40;4.77;;;20.20;99.90;;;20.17;73.88;101563.59;5057251;28;20622;-78
2023/08/21 02:29:58;;;;;;;5.23;4.33;;;20.10;99.90;;;20.23;73.56;101564.66;5057107;28;20612;-78
2023/08/21 02:32:30;;;;;;;6.37;4.83;;;20.20;99.90;;;20.23;73.83;101565.50;5057137;28;20225;-77
2023/08/21 02:35:02;;;;;;;7.77;4.50;;;20.20;99.90;;;20.16;73.23;101561.94;5057492;28;20213;-77
2023/08/21 02:37:34;;;;;;;6.13;4.70;;;20.20;99.90;;;20.06;73.61;101553.31;5057302;28;20292;-77
2023/08/21 02:40:10;;;;;;;7.73;5.00;;;20.10;99.90;;;20.02;74.39;101564.78;5056996;28;20609;-77
2023/08/21 02:42:42;;;;;;;7.50;4.33;;;20.00;99.90;;;19.95;73.94;101566.63;5056889;28;20194;-77
2023/08/21 02:45:14;;;;;;;6.87;4.90;;;19.90;99.90;;;20.01;74.55;101563.94;5056597;28;20233;-77
2023/08/21 02:47:47;;;;;;;8.57;4.70;;;20.00;99.90;;;20.06;74.11;101571.50;5056836;28;20226;-77
2023/08/21 02:50:18;;;;;;;7.67;4.87;;;20.10;99.90;;;20.07;73.93;101575.88;5056718;28;20739;-77
2023/08/21 02:52:50;;;;;;;7.07;4.60;;;20.10;99.90;;;19.94;73.55;101570.38;5056743;28;20320;-77
2023/08/21 02:55:24;;;;;;;9.53;4.67;;;20.00;99.90;;;19.93;74.47;101563.28;5056709;28;20214;-77
2023/08/21 02:57:56;;;;;;;7.93;5.33;;;20.00;99.90;;;19.97;74.43;101559.09;5056694;28;20255;-77
2023/08/21 03:00:28;;;;;;;6.10;4.23;;;20.00;99.90;;;20.02;74.26;101562.91;5056631;28;20186;-77
2023/08/21 03:03:00;;;;;;;7.83;4.73;;;20.00;99.90;;;20.01;74.68;101560.38;5056525;28;20337;-77
2023/08/21 03:05:32;;;;;;;6.23;4.60;;;20.10;99.90;;;19.86;74.78;101551.53;5056231;28;20564;-77
2023/08/21 03:08:04;;;;;;;9.10;4.90;;;19.90;99.90;;;19.79;75.19;101556.09;5056203;28;20190;-77
2023/08/21 03:10:37;;;;;;;5.00;4.20;;;19.80;99.90;;;19.78;75.22;101559.84;5056081;28;20696;-77
2023/08/21 03:13:09;;;;;;;7.83;4.90;;;19.80;99.90;;;19.69;74.91;101557.28;5056162;28;20341;-77
2023/08/21 03:15:41;;;;;;;9.37;4.77;;;19.80;99.90;;;19.60;75.23;101558.50;5056038;28;20664;-77
2023/08/21 03:18:13;;;;;;;5.10;4.60;;;19.60;99.90;;;19.66;75.91;101554.13;5056306;28;20218;-77
2023/08/21 03:20:49;;;;;;;7.53;4.73;;;19.70;99.90;;;19.68;75.43;101560.22;5056484;28;20193;-77
2023/08/21 03:23:21;;;;;;;7.33;4.87;;;19.80;99.90;;;19.73;75.41;101561.28;5056130;28;20252;-77
2023/08/21 03:25:56;;;;;;;6.97;4.70;;;19.80;99.90;;;19.72;75.20;101567.78;5056196;28;20222;-78
2023/08/21 03:28:28;;;;;;;7.50;4.20;;;19.80;99.90;;;19.67;75.04;101566.69;5056116;28;20297;-78
2023/08/21 03:31:00;;;;;;;5.60;4.47;;;19.70;99.90;;;19.68;74.97;101565.66;5055982;28;20301;-78
2023/08/21 03:33:32;;;;;;;5.43;4.60;;;19.80;99.90;;;19.60;75.27;101569.34;5055944;28;20230;-78
2023/08/21 03:36:04;;;;;;;7.33;4.80;;;19.70;99.90;;;19.55;75.33;101561.00;5055056;28;20190;-77
2023/08/21 03:38:36;;;;;;;6.33;4.40;;;19.60;99.90;;;19.55;75.98;101560.13;5055921;28;20195;-77
2023/08/21 03:41:09;;;;;;;6.57;4.83;;;19.60;99.90;;;19.50;75.63;101566.16;5056483;28;20264;-78
2023/08/21 03:43:41;;;;;;;9.63;4.53;;;19.50;99.90;;;19.41;75.89;101563.81;5055799;28;20316;-78
2023/08/21 03:46:13;;;;;;;9.10;4.33;;;19.50;99.90;;;19.44;75.95;101563.41;5055793;28;20285;-78
2023/08/21 03:48:45;;;;;;;6.93;4.40;;;19.50;99.90;;;19.37;76.43;101560.59;5055760;28;20197;-78
2023/08/21 03:51:17;;;;;;;6.00;4.30;;;19.40;99.90;;;19.34;76.26;101571.03;5055298;28;20790;-78
2023/08/21 03:53:50;;;;;;;6.13;4.27;;;19.40;99.90;;;19.35;76.90;101562.66;5055545;28;20313;-78
2023/08/21 03:56:24;;;;;;;9.60;5.03;;;19.40;99.90;;;19.35;76.92;101557.22;5055575;28;20607;-78
2023/08/21 03:58:56;;;;;;;7.40;4.33;;;19.40;99.90;;;19.34;77.89;101562.88;5055577;28;20255;-78
2023/08/21 04:01:28;;;;;;;7.90;4.77;;;19.40;99.90;;;19.35;77.71;101564.56;5055236;28;20193;-78
2023/08/21 04:04:00;;;;;;;6.83;4.57;;;19.40;99.90;;;19.33;77.61;101566.63;5055050;28;20789;-78
2023/08/21 04:06:32;;;;;;;6.47;4.20;;;19.40;99.90;;;19.35;77.46;101559.94;5055108;28;20662;-78
2023/08/21 04:09:06;;;;;;;8.80;4.77;;;19.50;99.90;;;19.34;77.32;101560.16;5055055;28;20636;-78
2023/08/21 04:11:39;;;;;;;5.80;4.40;;;19.40;99.90;;;19.34;77.75;101568.31;5054918;28;20667;-78
2023/08/21 04:14:11;;;;;;;8.40;4.00;;;19.40;99.90;;;19.33;77.86;101564.75;5054853;28;20328;-78
2023/08/21 04:16:43;;;;;;;5.37;4.70;;;19.50;99.90;;;19.27;78.31;101562.84;5055221;28;20195;-78
2023/08/21 04:19:15;;;;;;;6.37;4.90;;;19.40;99.90;;;19.30;77.81;101572.44;5054838;28;20649;-78
2023/08/21 04:21:46;;;;;;;6.67;4.90;;;19.40;99.90;;;19.23;77.24;101575.13;5055094;28;20214;-78
2023/08/21 04:24:18;;;;;;;5.87;4.50;;;19.30;99.90;;;19.22;78.38;101570.72;5054978;28;20312;-78
2023/08/21 04:26:51;;;;;;;6.87;4.40;;;19.30;99.90;;;19.23;78.35;101584.09;5055245;28;20200;-78
2023/08/21 04:29:23;;;;;;;6.57;4.87;;;19.40;99.90;;;19.21;78.41;101580.72;5054859;28;20271;-77
2023/08/21 04:31:55;;;;;;;6.60;4.80;;;19.30;99.90;;;19.16;78.42;101583.22;5054698;28;20605;-77
2023/08/21 04:34:27;;;;;;;6.20;4.33;;;19.30;99.90;;;19.17;78.13;101586.75;5054766;28;20226;-77
2023/08/21 04:36:59;;;;;;;8.03;4.67;;;19.30;99.90;;;19.13;78.24;101582.75;5054870;28;20273;-77
2023/08/21 04:39:31;;;;;;;7.97;4.90;;;19.20;99.90;;;19.11;78.75;101576.69;5054785;28;20195;-77
2023/08/21 04:42:04;;;;;;;6.53;4.30;;;19.20;99.90;;;19.11;78.52;101582.13;5054389;28;20229;-77
2023/08/21 04:44:36;;;;;;;7.83;4.43;;;19.30;99.90;;;19.10;78.59;101585.88;5054605;28;20317;-77
2023/08/21 04:47:23;;;;;;;5.93;4.77;;;19.20;99.90;;;19.11;77.97;101595.69;5054497;28;20241;-77
2023/08/21 04:49:56;;;;;;;8.70;4.83;;;19.20;99.90;;;19.10;77.97;101594.00;5054258;28;20230;-77
2023/08/21 04:52:28;;;;;;;9.30;4.77;;;19.20;99.90;;;19.01;78.31;101585.16;5054134;28;20566;-77
2023/08/21 04:55:00;;;;;;;6.30;4.80;;;19.10;99.90;;;18.99;78.84;101586.38;5054111;28;20699;-77
2023/08/21 04:57:33;;;;;;;6.67;4.70;;;19.10;99.90;;;19.04;78.58;101586.66;5054453;28;20625;-77
2023/08/21 05:00:05;;;;;;;6.67;4.80;;;19.20;99.90;;;19.06;78.77;101592.72;5054082;28;20197;-77
2023/08/21 05:02:38;;;;;;;7.87;4.80;;;19.20;99.90;;;19.02;78.27;101584.13;5054964;28;20540;-77
2023/08/21 05:05:11;;;;;;;8.67;4.90;;;19.20;99.90;;;19.08;78.48;101590.63;5054555;28;20189;-77
2023/08/21 05:07:43;;;;;;;8.07;4.43;;;19.20;99.90;;;19.04;78.66;101589.38;5053906;28;20614;-77
2023/08/21 05:10:16;;;;;;;5.67;4.90;;;19.20;99.90;;;19.02;78.99;101586.00;5054189;28;20290;-77
2023/08/21 05:12:50;;;;;;;11.67;5.20;;;19.20;99.90;;;19.02;78.84;101592.25;5053859;28;20245;-77
2023/08/21 05:15:22;;;;;;;5.10;4.60;;;19.20;99.90;;;19.03;79.17;101593.09;5054107;28;20234;-77
2023/08/21 05:17:54;;;;;;;5.90;4.23;;;19.20;99.90;;;18.98;79.35;101600.97;5054019;28;20218;-77
2023/08/21 05:20:26;;;;;;;6.93;5.00;;;19.20;99.90;;;19.00;79.38;101598.94;5053671;28;20600;-77
2023/08/21 05:22:58;;;;;;;7.30;4.70;;;19.20;99.90;;;19.02;79.61;101611.25;5053937;28;20299;-77
2023/08/21 05:25:29;;;;;;;7.00;4.53;;;19.20;99.90;;;19.07;80.10;101616.97;5053881;28;20635;-77
2023/08/21 05:28:03;;;;;;;5.57;4.20;;;19.30;99.90;;;19.06;80.09;101603.56;5053872;28;20217;-77
2023/08/21 05:30:36;;;;;;;7.63;4.50;;;19.20;99.90;;;19.07;80.61;101606.09;5053815;28;20190;-77
2023/08/21 05:33:08;;;;;;;8.73;5.00;;;19.20;99.90;;;19.10;80.71;101607.59;5053642;28;20624;-77
2023/08/21 05:35:40;;;;;;;8.90;4.70;;;19.30;99.90;;;19.07;80.98;101613.41;5053450;28;20195;-77
2023/08/21 05:38:12;;;;;;;6.57;4.60;;;19.30;99.90;;;19.05;81.09;101612.75;5053429;28;20649;-77
2023/08/21 05:40:45;;;;;;;8.67;4.60;;;19.30;99.90;;;19.10;80.65;101616.56;5053696;28;20222;-77
2023/08/21 05:43:19;;;;;;;7.67;4.50;;;19.30;99.90;;;19.12;80.83;101619.06;5053563;28;20253;-77
2023/08/21 05:45:51;;;;;;;6.73;4.57;;;19.40;99.90;;;19.10;80.45;101610.28;5053627;28;20618;-77
2023/08/21 05:48:23;;;;;;;12.03;4.90;;;19.30;99.90;;;19.10;80.81;101615.72;5053306;28;20275;-77
2023/08/21 05:50:57;;;;;;;9.10;5.30;;;19.30;99.90;;;19.12;81.04;101608.22;5053548;28;20286;-77
2023/08/21 05:53:29;;;;;;;6.80;4.40;;;19.40;99.90;;;19.13;81.01;101615.34;5053049;28;20695;-77
2023/08/21 05:56:01;;;;;;;8.23;4.70;;;19.30;99.90;;;19.13;81.40;101618.88;5053415;28;20583;-77
2023/08/21 05:58:34;;;;;;;6.87;4.53;;;19.40;99.90;;;19.16;81.30;101620.38;5052701;28;20651;-77
2023/08/21 06:01:06;;;;;;;9.07;4.93;;;19.40;99.90;;;19.19;81.33;101625.41;5053448;28;20197;-77
2023/08/21 06:03:38;;;;;;;8.40;5.00;;;19.40;99.90;;;19.17;81.68;101632.91;5053328;28;20218;-77
2023/08/21 06:06:10;;;;;;;7.97;4.60;;;19.40;99.90;;;19.21;81.61;101634.22;5053638;28;20206;-77
2023/08/21 06:08:42;;;;;;;7.80;4.67;;;19.50;99.90;;;19.24;81.64;101633.81;5053432;28;20289;-77
2023/08/21 06:11:14;;;;;;;8.17;4.60;;;19.50;99.90;;;19.23;81.30;101641.13;5053394;28;20248;-78
2023/08/21 06:13:48;;;;;;;8.47;4.63;;;19.50;99.90;;;19.28;81.92;101629.66;5052907;28;20728;-77
2023/08/21 06:16:20;;;;;;;8.07;4.40;;;19.60;99.90;;;19.33;82.05;101640.78;5053243;28;20610;-77
2023/08/21 06:18:52;;;;;;;8.47;4.43;;;19.60;99.90;;;19.35;81.68;101638.69;5053528;28;20607;-77
2023/08/21 06:21:23;;;;;;;9.93;4.77;;;19.70;99.90;;;19.37;81.48;101642.06;5053279;28;20277;-77
2023/08/21 06:23:55;;;;;;;6.63;4.10;;;19.60;99.90;;;19.40;81.29;101644.41;5053206;28;20265;-77
2023/08/21 06:26:27;;;;;;;6.67;4.37;;;19.70;99.90;;;19.43;80.75;101638.59;5053130;28;20226;-72
2023/08/21 06:29:00;;;;;;;6.20;3.83;;;19.70;99.90;;;19.46;80.47;101643.63;5053173;28;20281;-72
2023/08/21 06:31:32;;;;;;;9.00;4.73;;;19.80;99.90;;;19.51;80.45;101640.34;5053331;28;20230;-72
2023/08/21 06:34:05;;;;;;;6.03;4.50;;;19.80;99.90;;;19.53;80.17;101639.09;5053005;28;20222;-72
2023/08/21 06:36:36;;;;;;;7.57;4.33;;;19.80;99.90;;;19.56;79.72;101646.00;5053087;28;20235;-72
2023/08/21 06:39:08;;;;;;;7.20;4.37;;;19.90;99.90;;;19.58;79.60;101644.78;5052747;28;20605;-73
2023/08/21 06:41:40;;;;;;;7.30;4.67;;;19.90;99.90;;;19.61;79.41;101636.25;5052767;28;20543;-73
2023/08/21 06:44:14;;;;;;;6.57;4.50;;;19.90;99.90;;;19.68;80.05;101639.84;5052622;28;20264;-73
2023/08/21 06:46:45;;;;;;;6.47;3.73;;;20.00;99.90;;;19.73;79.99;101645.50;5053007;28;20244;-73
2023/08/21 06:49:17;;;;;;;6.60;3.93;;;20.10;99.90;;;19.78;80.97;101646.81;5052653;28;20672;-73
2023/08/21 06:51:49;;;;;;;10.27;4.17;;;20.10;99.90;;;19.82;80.12;101639.94;5052935;28;20290;-73
2023/08/21 06:54:21;;;;;;;6.70;4.23;;;20.20;99.90;;;19.86;79.63;101638.50;5052909;28;20258;-73
2023/08/21 06:56:53;;;;;;;6.37;4.13;;;20.20;99.90;;;19.89;79.65;101643.53;5052946;28;20190;-73
2023/08/21 06:59:26;;;;;;;5.43;3.83;;;20.30;99.90;;;19.93;80.12;101639.38;5052920;28;20252;-73
2023/08/21 07:01:58;;;;;;;6.07;4.10;;;20.30;99.90;;;19.97;80.22;101641.50;5052562;28;20707;-73
2023/08/21 07:04:30;;;;;;;5.00;3.53;;;20.30;99.90;;;20.02;79.33;101649.06;5052816;28;20226;-73
2023/08/21 07:07:02;;;;;;;7.37;3.80;;;20.40;99.90;;;20.05;80.51;101654.09;5053071;28;20190;-73
2023/08/21 07:09:34;;;;;;;9.63;3.77;;;20.40;99.90;;;20.09;79.75;101655.38;5052794;28;20294;-73
2023/08/21 07:12:07;;;;;;;6.00;3.60;;;20.50;99.90;;;20.13;80.24;101657.50;5055751;28;20259;-73
2023/08/21 07:14:40;;;;;;;7.07;3.40;;;20.50;99.90;;;20.17;79.83;101668.81;5055997;28;20734;-73
2023/08/21 07:17:12;;;;;;;6.17;3.43;;;20.60;99.90;;;20.18;79.93;101659.59;5056080;28;20194;-73
2023/08/21 07:19:44;;;;;;;6.67;3.70;;;20.60;99.90;;;20.19;78.74;101662.13;5056338;28;20277;-73
2023/08/21 07:22:18;;;;;;;5.40;3.13;;;20.50;99.90;;;20.24;78.18;101659.63;5056308;28;20190;-73
2023/08/21 07:24:50;;;;;;;5.60;3.13;;;20.60;99.90;;;20.28;77.91;101654.66;5056127;28;20233;-73
2023/08/21 07:27:22;;;;;;;6.63;3.33;;;20.70;99.90;;;20.32;79.32;101653.22;5056183;28;20200;-73
2023/08/21 07:29:55;;;;;;;6.27;3.03;;;20.70;99.90;;;20.36;75.90;101651.78;5055799;28;20293;-73
2023/08/21 07:32:27;;;;;;;9.37;2.97;;;20.70;99.90;;;20.39;74.95;101648.66;5056014;28;20206;-73
2023/08/21 07:34:59;;;;;;;5.27;2.80;;;20.80;99.90;;;20.40;74.45;101653.06;5056095;28;20194;-73
2023/08/21 07:37:31;;;;;;;4.57;2.87;;;20.70;99.90;;;20.42;74.67;101659.13;5055964;28;20214;-73
2023/08/21 07:40:03;;;;;;;5.47;2.90;;;20.80;99.90;;;20.44;73.99;101662.50;5055962;28;20205;-73
2023/08/21 07:42:35;;;;;;;5.20;2.90;;;20.80;99.90;;;20.51;74.54;101660.66;5055501;28;20237;-73
2023/08/21 07:45:09;;;;;;;7.70;3.13;;;20.90;99.90;;;20.56;74.65;101671.75;5055823;28;20195;-73
2023/08/21 07:47:41;;;;;;;5.13;2.80;;;20.90;99.90;;;20.60;74.83;101673.03;5056209;28;20669;-72
2023/08/21 07:50:16;;;;;;;6.67;3.17;;;21.00;99.90;;;20.63;74.51;101674.47;5056264;28;20206;-72
2023/08/21 07:52:51;;;;;;;8.63;3.27;;;21.00;99.90;;;20.66;74.28;101682.25;5055511;28;20260;-74
2023/08/21 07:55:23;;;;;;;5.20;3.20;;;21.10;99.90;;;20.68;73.44;101683.75;5055778;28;20640;-76
2023/08/21 07:57:55;;;;;;;5.27;2.80;;;21.10;99.90;;;20.70;74.69;101678.91;5055874;28;20628;-76
2023/08/21 08:00:28;;;;;;;7.67;3.20;;;21.10;99.90;;;20.72;74.09;101681.41;5055941;28;20186;-76
2023/08/21 08:03:02;;;;;;;10.30;3.40;;;21.10;99.90;;;20.78;74.07;101682.50;5055605;28;20368;-76
2023/08/21 08:05:34;;;;;;;7.03;3.03;;;21.10;99.90;;;20.79;74.95;101681.47;5055446;28;20594;-77
2023/08/21 08:08:08;;;;;;;5.93;2.90;;;21.20;99.90;;;20.84;73.52;101684.41;5055653;28;20190;-77
2023/08/21 08:10:43;;;;;;;5.93;3.17;;;21.20;99.90;;;20.88;73.06;101691.13;5055977;28;20285;-77
2023/08/21 08:13:15;;;;;;;7.03;3.23;;;21.20;99.90;;;20.92;73.35;101686.94;5055284;28;20316;-77
2023/08/21 08:15:48;;;;;;;7.43;2.90;;;21.20;99.90;;;20.92;72.25;101689.66;5055766;28;20190;-77
2023/08/21 08:18:22;;;;;;;5.03;2.60;;;21.30;99.90;;;20.93;71.54;101689.44;5055327;28;20645;-77
2023/08/21 08:20:55;;;;;;;7.60;3.37;;;21.30;99.90;;;20.95;71.82;101683.81;5057542;28;20199;-77
2023/08/21 08:23:27;;;;;;;6.07;2.90;;;21.30;99.90;;;20.99;72.18;101687.81;5056901;28;20272;-77
2023/08/21 08:25:59;;;;;;;5.83;2.77;;;21.30;99.90;;;21.02;72.32;101685.50;5058131;28;20210;-77
2023/08/21 08:28:31;;;;;;;10.97;6.77;;;21.40;99.90;;;21.07;72.54;101688.44;5058962;28;20273;-78
2023/08/21 08:31:04;;;;;;;6.23;3.03;;;21.40;99.90;;;21.11;70.81;101683.44;5057989;28;20222;-77
2023/08/21 08:33:36;;;;;;;15.27;12.17;;;21.50;99.90;;;21.16;71.79;101683.69;5056285;28;20316;-64
2023/08/21 08:36:08;;;;;;;13.23;5.90;;;21.50;99.90;;;21.27;71.20;101680.31;5054723;28;20256;-75
2023/08/21 08:38:40;;;;;;;10.93;8.90;;;21.60;99.90;;;21.32;70.19;101683.28;5054782;28;20191;-75
2023/08/21 08:41:25;;;;;;;7.77;3.80;;;21.70;99.90;;;21.48;71.21;101684.75;5054822;28;20190;-75
2023/08/21 08:43:56;;;;;;;6.57;2.50;;;21.90;99.90;;;21.53;69.05;101690.44;5054712;28;20280;-75
2023/08/21 08:46:31;;;;;;;6.73;2.70;;;21.90;99.90;;;21.56;67.21;101685.41;5054403;28;20187;-75
2023/08/21 09:01:22;;;;;;;6.00;3.07;;;22.10;99.90;;;21.78;66.41;101679.72;5054272;28;20640;-75
2023/08/21 09:03:55;;;;;;;4.43;2.50;;;22.20;99.90;;;21.82;67.64;101686.41;5054316;28;20222;-75
2023/08/21 09:06:28;;;;;;;6.30;3.10;;;22.20;99.90;;;21.89;67.65;101676.34;5054477;28;20195;-75
2023/08/21 09:09:00;;;;;;;6.00;2.17;;;22.30;99.90;;;21.94;62.88;101669.25;5054187;28;20194;-75
2023/08/21 09:11:34;;;;;;;5.43;2.90;;;22.30;99.00;;;22.00;66.70;101673.00;5054141;28;20201;-75
2023/08/21 09:14:06;;;;;;;8.37;2.80;;;22.30;99.90;;;22.06;61.50;101661.25;5053723;28;20253;-75
2023/08/21 09:16:38;;;;;;;5.70;2.50;;;22.40;97.70;;;22.07;62.44;101671.94;5054119;28;20298;-76
2023/08/21 09:19:11;;;;;;;9.40;3.80;;;22.40;97.90;;;22.15;66.04;101665.44;5054001;28;20205;-75
2023/08/21 09:21:43;;;;;;;5.83;2.40;;;22.50;99.90;;;22.21;67.21;101675.47;5054045;28;20277;-75
2023/08/21 09:24:15;;;;;;;6.80;2.53;;;22.60;99.90;;;22.20;61.68;101662.88;5053557;28;20655;-75
2023/08/21 09:26:47;;;;;;;6.00;2.50;;;22.60;97.60;;;22.32;65.30;101666.66;5053637;28;20217;-75
2023/08/21 09:29:21;;;;;;;4.80;2.30;;;22.70;99.30;;;22.44;62.09;101659.44;5053862;28;20225;-75
2023/08/21 09:31:56;;;;;;;4.60;2.23;;;22.80;97.90;;;22.55;64.50;101666.97;5053869;28;20190;-75
2023/08/21 09:34:39;;;;;;;5.93;2.93;;;22.90;99.00;;;22.64;66.18;101665.66;5052990;28;20595;-75
2023/08/21 09:37:13;;;;;;;5.87;2.57;;;23.00;99.70;;;22.74;64.44;101660.59;5053764;28;20281;-75
2023/08/21 09:44:12;;;;;;;5.77;2.73;;;23.20;97.50;;;22.87;63.41;101656.97;4972779;28;20251;-75
2023/08/21 09:46:49;;;;;;;6.27;2.70;;;23.30;98.40;;;22.93;64.68;101657.97;4973482;28;20280;-75
2023/08/21 09:49:54;;;;;;;7.33;2.27;;;23.30;98.80;;;22.96;62.86;101668.47;4972765;28;20643;-75
2023/08/21 09:52:27;;;;;;;6.07;3.13;;;23.30;97.60;;;22.98;64.03;101664.44;4972553;28;20272;-75
2023/08/21 09:55:04;;;;;;;5.87;2.60;;;23.30;98.30;;;23.02;64.21;101664.84;5047026;28;20234;-76
2023/08/21 09:57:37;;;;;;;5.90;2.30;;;23.30;98.60;;;23.11;64.68;101666.28;5053418;28;20639;-76
2023/08/21 10:00:15;;;;;;;6.60;2.50;;;23.40;98.80;;;23.19;61.84;101663.25;5053407;28;20194;-76
2023/08/21 10:02:50;;;;;;;3.77;2.10;;;23.50;97.00;;;23.30;63.29;101661.72;5053416;28;20244;-76
2023/08/21 10:05:24;;;;;;;4.83;2.60;;;23.60;98.10;;;23.36;63.37;101656.19;5053191;28;20659;-76
2023/08/21 10:08:01;;;;;;;5.30;2.50;;;23.70;98.30;;;23.39;58.64;101663.94;5053412;28;20218;-75
2023/08/21 10:10:33;;;;;;;5.00;2.47;;;23.80;96.20;;;23.45;58.09;101662.28;5053463;28;20197;-76
2023/08/21 10:13:08;;;;;;;5.10;2.20;;;23.80;95.40;;;23.51;60.90;101666.84;5053570;28;20273;-76
2023/08/21 10:15:42;;;;;;;6.60;2.83;;;23.80;96.80;;;23.55;63.04;101663.47;5053323;28;20222;-75
2023/08/21 10:18:24;;;;;;;5.67;2.50;;;23.80;97.70;;;23.60;58.67;101660.88;5053767;28;20277;-75
2023/08/21 10:21:10;;;;;;;4.90;2.53;;;23.90;95.50;;;23.65;60.22;101669.25;5053657;28;20272;-76
2023/08/21 10:23:46;;;;;;;5.20;2.30;;;24.00;96.30;;;23.68;59.23;101674.28;5053213;28;20226;-76
2023/08/21 10:26:19;;;;;;;4.90;2.07;;;24.00;95.20;;;23.59;54.90;101664.69;5053312;28;20232;-76
2023/08/21 10:29:01;;;;;;;3.80;1.97;;;23.90;93.10;;;23.62;54.17;101668.88;5053248;28;20275;-76
2023/08/21 10:31:38;;;;;;;7.20;3.60;;;23.80;92.60;;;23.68;57.63;101674.28;5053222;28;20190;-76
2023/08/21 10:34:13;;;;;;;3.13;1.87;;;23.90;94.50;;;23.74;56.12;101678.84;5052712;28;20765;-76
2023/08/21 10:37:12;;;;;;;5.20;2.20;;;24.00;93.50;;;23.75;53.58;101676.94;5053175;28;20197;-76
2023/08/21 10:39:56;;;;;;;4.87;2.50;;;24.00;91.80;;;23.79;53.97;101674.59;5053182;28;20191;-76
2023/08/21 10:42:43;;;;;;;4.00;2.00;;;24.00;92.60;;;23.86;54.66;101686.31;5053126;28;20186;-76
2023/08/21 10:45:15;;;;;;;6.50;2.40;;;24.10;92.70;;;23.87;54.10;101677.06;5055056;28;20536;-76
2023/08/21 10:47:49;;;;;;;5.40;2.40;;;24.10;92.50;;;23.88;57.05;101675.97;5056928;28;20546;-76
2023/08/21 10:50:22;;;;;;;8.07;2.30;;;24.10;94.00;;;23.88;56.95;101675.97;5056877;28;20200;-76
2023/08/21 10:52:59;;;;;;;6.77;2.60;;;24.10;94.10;;;23.85;53.61;101674.53;5056803;28;20292;-76
2023/08/21 10:55:31;;;;;;;5.00;3.43;;;24.10;92.10;;;23.95;56.34;101668.53;5056822;28;20213;-76